Погода Аданакна неделю

Республика Дагестан, Россия

12 - 18 июля
  • 12июля
    Сегодня
    +20°
    +34°
    Небольшая облачность
    ВремяПогодаТемператураВлажностьДавлениеВетер, м/сВероятность осадков
    00:00Ясно и безоблачно+21°C80 %723 мм1.4 м/с2 %
    03:00Практически безоблачно+20°C78 %723 мм1.2 м/с2 %
    06:00Ясно и безоблачно+23°C67 %723 мм2.0 м/с2 %
    09:00Ясно и безоблачно+31°C24 %723 мм1.4 м/с2 %
    12:00Ясно и безоблачно+34°C22 %723 мм3.8 м/с2 %
    15:00Небольшая облачность+32°C26 %723 мм3.6 м/с9 %
    18:00Облачно с прояснениями+29°C29 %722 мм3.6 м/с6 %
    21:00Облачно с прояснениями+24°C40 %721 мм1.5 м/с2 %
  • 13июля
    Суббота
    +18°
    +30°
    Ясно и безоблачно
    ВремяПогодаТемператураВлажностьДавлениеВетер, м/сВероятность осадков
    00:00Ясно и безоблачно+22°C58 %721 мм1.0 м/с1 %
    03:00Ясно и безоблачно+21°C57 %721 мм1.3 м/с3 %
    06:00Ясно и безоблачно+23°C49 %722 мм2.0 м/с2 %
    09:00Практически безоблачно+27°C54 %722 мм3.7 м/с9 %
    12:00Практически безоблачно+30°C36 %722 мм3.5 м/с22 %
    15:00Ясно и безоблачно+27°C40 %722 мм3.8 м/с12 %
    18:00Ясно и безоблачно+25°C49 %721 мм2.7 м/с5 %
    21:00Ясно и безоблачно+20°C66 %721 мм0.9 м/с1 %
  • 14июля
    Воскресенье
    +18°
    +32°
    Ясно и безоблачно
    ВремяПогодаТемператураВлажностьДавлениеВетер, м/сВероятность осадков
    00:00Ясно и безоблачно+20°C65 %721 мм1.8 м/с2 %
    03:00Ясно и безоблачно+19°C44 %720 мм2.1 м/с2 %
    06:00Ясно и безоблачно+22°C34 %721 мм2.1 м/с2 %
    09:00Небольшая облачность+28°C22 %722 мм4.3 м/с2 %
    12:00Практически безоблачно+31°C19 %722 мм4.6 м/с1 %
    15:00Ясно и безоблачно+29°C33 %721 мм3.7 м/с2 %
    18:00Ясно и безоблачно+25°C42 %722 мм3.0 м/с2 %
    21:00Ясно и безоблачно+20°C55 %722 мм1.2 м/с2 %
  • 15июля
    Понедельник
    +19°
    +33°
    Ясно и безоблачно
    ВремяПогодаТемператураВлажностьДавлениеВетер, м/сВероятность осадков
    00:00Ясно и безоблачно+19°C57 %721 мм1.6 м/с2 %
    03:00Ясно и безоблачно+18°C50 %721 мм1.8 м/с2 %
    06:00Ясно и безоблачно+22°C41 %722 мм2.3 м/с2 %
    09:00Ясно и безоблачно+30°C22 %723 мм1.6 м/с2 %
    12:00Ясно и безоблачно+32°C22 %723 мм3.3 м/с2 %
    15:00Ясно и безоблачно+31°C29 %722 мм4.1 м/с2 %
    18:00Ясно и безоблачно+28°C38 %723 мм2.9 м/с2 %
    21:00Ясно и безоблачно+22°C52 %722 мм1.3 м/с2 %
  • 16июля
    Вторник
    +19°
    +34°
    Ясно и безоблачно
    ВремяПогодаТемператураВлажностьДавлениеВетер, м/сВероятность осадков
    00:00Ясно и безоблачно+21°C56 %722 мм0.9 м/с2 %
    03:00Ясно и безоблачно+20°C59 %722 мм1.4 м/с2 %
    06:00Ясно и безоблачно+23°C53 %723 мм1.8 м/с2 %
    09:00Ясно и безоблачно+31°C27 %724 мм2.6 м/с2 %
    12:00Ясно и безоблачно+33°C25 %724 мм4.3 м/с3 %
    15:00Ясно и безоблачно+31°C30 %723 мм5.2 м/с4 %
    18:00Ясно и безоблачно+29°C37 %724 мм3.4 м/с2 %
    21:00Ясно и безоблачно+24°C52 %723 мм1.7 м/с2 %
Мы используем cookies
Соглашаюсь